»·PEaware :: N79567 KSMX-KBFL

N79567 :: KSMX-KBFL

FLIGHT INFORMATION

Flight Status: Arrived
Operator: Privately registered:
United States
More flights under this callsign
Pilot: Eric S. (23095)
Aircraft: CESSNA 172 SKYHAWK
(C172)
More flights by this aircraft type
Origin: KSMX Santa Maria Pub/Capt Hancock
United States
Destination: KBFL Meadows
United States
More flights between these airports :: More routes between these airports
Route: +DIRECT
File this flight plan on PilotEdge
Remarks: CAT5
Altitude:
(Current/Filed)
5,500ft
Speed:
(Current/Filed)
115kts
Departed: 30-Jan-19 07:44 PM
Arrived: 30-Jan-19 08:29 PM
Distance/Time
Traveled:
76nm/0:45
Distance/Time
To Go:
Arrived

Flight Plot

Page will automatically refresh every two minutes.


Map Options




Map Legend


Flown Route
Filed Route
Departure Airport
Arrival Airport
Navaid (VOR, NDB)
Fix

Horizontal Profiles

Position Reports

Time Latitude Longitude Heading Altitude Ground
Speed
30-Jan-19 19:35 34.895642 -120.444790 314 265ft 0kts
30-Jan-19 19:36 34.895642 -120.444790 314 265ft 0kts
30-Jan-19 19:37 34.895642 -120.444790 314 265ft 0kts
30-Jan-19 19:38 34.895642 -120.444790 314 265ft 0kts
30-Jan-19 19:39 34.895672 -120.445052 231 265ft 6kts
30-Jan-19 19:40 34.893765 -120.445194 179 265ft 7kts
30-Jan-19 19:41 34.893434 -120.445196 178 265ft 0kts
30-Jan-19 19:42 34.893434 -120.445196 178 265ft 0kts
30-Jan-19 19:43 34.893748 -120.447068 316 265ft 47kts
30-Jan-19 19:44 34.909233 -120.463747 345 927ft 84kts
30-Jan-19 19:45 34.921969 -120.441125 69 1611ft 91kts
30-Jan-19 19:46 34.933388 -120.413276 68 2246ft 92kts
30-Jan-19 19:47 34.942355 -120.383799 74 2831ft 93kts
30-Jan-19 19:48 34.949362 -120.353025 74 3368ft 94kts
30-Jan-19 19:49 34.960215 -120.323681 56 3857ft 95kts
30-Jan-19 19:50 34.965207 -120.292144 93 4318ft 97kts
30-Jan-19 19:52 34.966334 -120.259484 76 4717ft 92kts
30-Jan-19 19:53 34.976611 -120.231936 59 5324ft 89kts
30-Jan-19 19:54 34.986916 -120.205133 59 5939ft 88kts
30-Jan-19 19:55 34.999186 -120.178922 65 6492ft 92kts
30-Jan-19 19:56 35.008732 -120.149752 66 7028ft 89kts
30-Jan-19 19:57 35.016047 -120.120433 57 7522ft 90kts
30-Jan-19 19:58 35.027914 -120.090222 66 7413ft 103kts
30-Jan-19 19:59 35.037462 -120.057783 70 7429ft 97kts
30-Jan-19 20:00 35.047278 -120.024741 63 7528ft 104kts
30-Jan-19 20:01 35.060207 -119.992797 60 7662ft 106kts
30-Jan-19 20:02 35.072902 -119.955884 65 7617ft 121kts
30-Jan-19 20:03 35.086511 -119.917426 64 7606ft 125kts
30-Jan-19 20:04 35.101483 -119.878651 60 7582ft 125kts
30-Jan-19 20:05 35.119026 -119.841786 55 7577ft 125kts
30-Jan-19 20:06 35.136574 -119.805047 57 7573ft 125kts
30-Jan-19 20:07 35.153131 -119.767546 62 7573ft 126kts
30-Jan-19 20:08 35.167216 -119.728297 63 7574ft 126kts
30-Jan-19 20:09 35.182990 -119.690222 60 7574ft 125kts
30-Jan-19 20:10 35.196486 -119.650587 62 7576ft 125kts
30-Jan-19 20:10 35.209367 -119.618637 58 7579ft 125kts
30-Jan-19 20:11 35.225985 -119.581144 59 7583ft 125kts
30-Jan-19 20:13 35.246211 -119.537982 63 7580ft 126kts
30-Jan-19 20:14 35.259559 -119.499101 60 7589ft 125kts
30-Jan-19 20:14 35.270556 -119.466212 70 7140ft 124kts
30-Jan-19 20:15 35.283087 -119.426476 65 6377ft 124kts
30-Jan-19 20:16 35.296267 -119.387477 65 5659ft 123kts
30-Jan-19 20:17 35.309373 -119.349312 70 4944ft 122kts
30-Jan-19 20:18 35.319307 -119.309921 66 4203ft 120kts
30-Jan-19 20:19 35.334675 -119.273990 60 3519ft 118kts
30-Jan-19 20:20 35.349077 -119.237899 67 2882ft 117kts
30-Jan-19 20:21 35.359989 -119.200430 70 2290ft 116kts
30-Jan-19 20:22 35.362109 -119.161438 94 1728ft 114kts
30-Jan-19 20:23 35.368097 -119.123273 65 1522ft 113kts
30-Jan-19 20:24 35.383339 -119.089262 56 1432ft 114kts
30-Jan-19 20:25 35.401237 -119.057227 53 1403ft 112kts
30-Jan-19 20:26 35.417154 -119.039580 351 959ft 72kts
30-Jan-19 20:27 35.430272 -119.051788 311 570ft 57kts
30-Jan-19 20:28 35.436302 -119.057789 59 492ft 20kts
30-Jan-19 20:29 35.434942 -119.054784 321 493ft 11kts
30-Jan-19 20:30 35.435672 -119.053498 321 500ft 0kts
30-Jan-19 20:31 35.435672 -119.053497 321 500ft 0kts

Navigation Log

Ident Type
Flight plan parsing failed, navigation log unavailable